Time;durP1;ratioP1;P1;durP2;ratioP2;P2;SDS_P1;SDS_P2;PMS_P1;PMS_P2;Temp;Humidity;BMP_temperature;BMP_pressure;BME280_temperature;BME280_humidity;BME280_pressure;Samples;Min_cycle;Max_cycle;Signal;HPM_P1;HPM_P2
2021/06/13 00:00:18;;;;;;;14.20;6.72;;;;;;;13.09;78.67;102111.41;5014442;28;20052;-85
2021/06/13 00:02:48;;;;;;;13.88;6.53;;;;;;;13.05;79.12;102120.75;5043992;28;20041;-86
2021/06/13 00:05:16;;;;;;;13.52;7.07;;;;;;;12.97;79.25;102124.19;5013604;28;20069;-85
2021/06/13 00:07:41;;;;;;;14.27;7.15;;;;;;;12.83;79.31;102127.34;5005751;28;20494;-87
2021/06/13 00:10:08;;;;;;;14.93;6.88;;;;;;;12.86;79.97;102127.94;5023683;28;20037;-84
2021/06/13 00:12:34;;;;;;;14.40;7.57;;;;;;;12.81;80.15;102123.97;5020921;28;20042;-85
2021/06/13 00:15:00;;;;;;;17.17;7.97;;;;;;;12.76;80.21;102128.94;5023051;28;20037;-85
2021/06/13 00:17:25;;;;;;;16.05;8.25;;;;;;;12.71;80.18;102129.38;5023751;28;20033;-89
2021/06/13 00:19:50;;;;;;;16.52;7.85;;;;;;;12.70;80.66;102132.22;5026418;28;20038;-86
2021/06/13 00:22:16;;;;;;;15.50;8.68;;;;;;;12.64;80.93;102128.28;5005447;28;20589;-84
2021/06/13 00:24:41;;;;;;;14.40;8.35;;;;;;;12.59;81.13;102130.53;4999068;28;20042;-85
2021/06/13 00:27:07;;;;;;;16.33;8.15;;;;;;;12.51;81.50;102138.50;5020367;28;20073;-87
2021/06/13 00:29:33;;;;;;;18.10;8.90;;;;;;;12.47;81.69;102140.63;5025142;28;20159;-83
2021/06/13 00:31:59;;;;;;;14.82;8.85;;;;;;;12.44;81.96;102142.75;5023277;28;20112;-84
2021/06/13 00:34:24;;;;;;;14.98;9.18;;;;;;;12.45;81.31;102137.22;5023355;28;20674;-85
2021/06/13 00:36:53;;;;;;;12.60;8.55;;;;;;;12.45;81.80;102139.91;5035688;28;20042;-87
2021/06/13 00:39:19;;;;;;;18.17;9.52;;;;;;;12.41;81.91;102144.75;5034922;28;20517;-87
2021/06/13 00:41:44;;;;;;;19.60;9.90;;;;;;;12.37;82.49;102146.03;5027440;28;20049;-85
2021/06/13 00:44:14;;;;;;;15.43;8.93;;;;;;;12.41;81.99;102147.44;5024411;28;20041;-87
2021/06/13 00:46:40;;;;;;;17.55;9.90;;;;;;;12.40;81.93;102151.13;5029879;28;20856;-87
2021/06/13 00:49:07;;;;;;;19.02;10.18;;;;;;;12.41;81.79;102142.06;5025654;28;20479;-83
2021/06/13 00:51:33;;;;;;;21.92;10.93;;;;;;;12.38;81.66;102145.03;5044884;28;20773;-83
2021/06/13 00:53:58;;;;;;;16.95;10.32;;;;;;;12.35;81.89;102147.16;5026961;28;20062;-88
2021/06/13 00:56:26;;;;;;;23.33;10.93;;;;;;;12.31;82.07;102149.28;5039486;28;20042;-86
2021/06/13 00:58:54;;;;;;;18.67;10.57;;;;;;;12.30;82.03;102147.59;5027394;28;20136;-86
2021/06/13 01:01:21;;;;;;;18.63;10.25;;;;;;;12.29;82.05;102151.28;5023342;28;20042;-84
2021/06/13 01:03:48;;;;;;;17.05;10.82;;;;;;;12.27;82.23;102157.78;5036199;28;20052;-84
2021/06/13 01:06:28;;;;;;;15.98;9.90;;;;;;;12.22;82.19;102154.66;5037253;28;20489;-86
2021/06/13 01:09:05;;;;;;;20.25;10.85;;;;;;;12.12;82.33;102160.06;5022102;28;20045;-83
2021/06/13 01:12:14;;;;;;;19.73;11.30;;;;;;;12.06;82.44;102160.63;5040523;28;20033;-88
2021/06/13 01:14:58;;;;;;;;;;;;;;;11.96;82.94;102161.44;5040485;28;20044;-88
2021/06/13 01:17:33;;;;;;;20.33;11.57;;;;;;;11.70;83.78;102166.47;5033199;28;19923;-87
2021/06/13 01:20:14;;;;;;;21.95;11.52;;;;;;;11.77;84.07;102160.53;5020757;28;20042;-84
2021/06/13 01:23:04;;;;;;;17.80;11.75;;;;;;;11.79;84.02;102159.41;5022758;28;20033;-88
2021/06/13 01:26:08;;;;;;;19.05;12.05;;;;;;;11.73;84.06;102159.97;5012837;28;20050;-84
2021/06/13 01:28:48;;;;;;;20.40;11.55;;;;;;;11.70;84.23;102161.09;5019600;28;20238;-84
2021/06/13 01:31:16;;;;;;;19.20;11.65;;;;;;;11.73;84.20;102155.44;5018388;28;20046;-86
2021/06/13 01:33:43;;;;;;;21.05;10.95;;;;;;;11.69;83.85;102161.25;5021019;28;20091;-86
2021/06/13 01:36:09;;;;;;;20.60;11.25;;;;;;;11.67;84.24;102158.69;5021585;28;20128;-86
2021/06/13 01:38:37;;;;;;;16.17;9.80;;;;;;;11.66;84.36;102158.84;5030790;28;20204;-84
2021/06/13 01:41:08;;;;;;;17.48;10.68;;;;;;;11.66;84.47;102174.97;5030824;28;20453;-84
2021/06/13 01:43:35;;;;;;;18.08;10.32;;;;;;;11.59;84.23;102169.25;5028551;28;20454;-85
2021/06/13 01:46:03;;;;;;;18.15;10.52;;;;;;;11.60;84.10;102168.31;5034828;28;20037;-87
2021/06/13 01:48:28;;;;;;;18.45;10.80;;;;;;;11.54;84.46;102168.84;5030836;28;20042;-84
2021/06/13 01:50:58;;;;;;;18.95;10.10;;;;;;;11.45;84.52;102164.28;5035967;28;20044;-89
2021/06/13 01:53:25;;;;;;;15.35;10.15;;;;;;;11.44;84.63;102165.28;5021339;28;20061;-83
2021/06/13 01:55:51;;;;;;;19.20;11.38;;;;;;;11.40;85.12;102164.69;5016138;28;20034;-87
2021/06/13 01:58:20;;;;;;;15.93;9.75;;;;;;;11.33;84.92;102162.69;5007372;28;20704;-83
2021/06/13 02:00:48;;;;;;;18.85;10.60;;;;;;;11.26;84.96;102152.47;5025145;28;20048;-87
2021/06/13 02:03:14;;;;;;;21.17;11.20;;;;;;;11.25;85.65;102155.31;5014248;28;20038;-84
2021/06/13 02:05:41;;;;;;;17.10;10.27;;;;;;;11.26;85.50;102157.00;5018209;28;20034;-85
2021/06/13 02:08:08;;;;;;;15.60;9.75;;;;;;;11.22;85.72;102155.56;5008355;28;20144;-84
2021/06/13 02:10:34;;;;;;;17.20;10.45;;;;;;;11.17;85.46;102157.81;5015741;28;20034;-85
2021/06/13 02:13:00;;;;;;;15.10;9.82;;;;;;;11.12;85.38;102149.31;5021640;28;20128;-84
2021/06/13 02:15:27;;;;;;;18.00;10.88;;;;;;;11.13;85.58;102148.31;5019123;28;20068;-87
2021/06/13 02:17:54;;;;;;;17.85;10.85;;;;;;;11.09;85.40;102145.06;5014639;28;20518;-87
2021/06/13 02:20:23;;;;;;;16.20;9.70;;;;;;;11.04;85.36;102156.19;5020276;28;20474;-85
2021/06/13 02:22:49;;;;;;;18.88;11.02;;;;;;;11.02;86.16;102154.66;5020818;28;20552;-86
2021/06/13 02:25:20;;;;;;;16.55;10.25;;;;;;;10.93;86.09;102147.38;5017274;28;20034;-87
2021/06/13 02:27:50;;;;;;;18.67;11.32;;;;;;;10.81;86.41;102147.44;5021577;28;20037;-85
2021/06/13 02:30:19;;;;;;;19.60;10.10;;;;;;;10.80;86.30;102147.59;5016142;28;20034;-84
2021/06/13 02:32:46;;;;;;;18.50;11.43;;;;;;;10.73;86.47;102154.47;5015123;28;20049;-82
2021/06/13 02:35:14;;;;;;;17.60;10.43;;;;;;;10.71;86.85;102148.41;5016072;28;20041;-84
2021/06/13 02:37:42;;;;;;;18.23;11.20;;;;;;;10.66;87.29;102154.16;5026385;28;20050;-83
2021/06/13 02:40:09;;;;;;;19.73;10.70;;;;;;;10.68;87.40;102156.72;5017505;28;20037;-87
2021/06/13 02:42:35;;;;;;;22.42;12.00;;;;;;;10.58;87.08;102162.84;5003088;28;20057;-83
2021/06/13 02:45:01;;;;;;;22.00;10.93;;;;;;;10.57;87.29;102163.00;5016280;28;20038;-86
2021/06/13 02:47:26;;;;;;;19.58;12.10;;;;;;;10.60;87.51;102166.25;5021662;28;20372;-88
2021/06/13 02:49:52;;;;;;;19.23;10.50;;;;;;;10.54;87.34;102172.16;5042161;28;20037;-84
2021/06/13 02:52:29;;;;;;;16.67;11.65;;;;;;;10.48;87.59;102177.22;5036335;28;20061;-86
2021/06/13 02:54:59;;;;;;;19.98;12.30;;;;;;;10.46;87.97;102180.00;5016282;28;20042;-82
2021/06/13 02:57:30;;;;;;;17.58;11.10;;;;;;;10.40;88.19;102175.16;5016433;28;20489;-85
2021/06/13 03:00:04;;;;;;;19.27;11.43;;;;;;;10.39;88.40;102185.06;5008827;28;20052;-83
2021/06/13 03:02:30;;;;;;;19.30;11.35;;;;;;;10.42;87.88;102189.31;5017162;28;20171;-82
2021/06/13 03:05:00;;;;;;;18.88;10.82;;;;;;;10.34;87.95;102191.78;5017619;28;20125;-83
2021/06/13 03:07:26;;;;;;;18.27;11.57;;;;;;;10.34;87.94;102195.31;5011863;28;20499;-85
2021/06/13 03:09:52;;;;;;;18.48;11.35;;;;;;;10.37;87.99;102202.25;5005921;28;20050;-84
2021/06/13 03:12:19;;;;;;;16.98;11.25;;;;;;;10.35;87.99;102197.00;5017173;28;20049;-82
2021/06/13 03:14:46;;;;;;;23.08;13.18;;;;;;;10.31;88.02;102198.25;5018991;28;20501;-84
2021/06/13 03:17:13;;;;;;;20.52;12.23;;;;;;;10.28;88.80;102194.97;5013808;28;20822;-88
2021/06/13 03:19:41;;;;;;;18.38;12.32;;;;;;;10.31;88.64;102206.31;5003036;28;20505;-87
2021/06/13 03:22:07;;;;;;;20.65;12.40;;;;;;;10.23;88.66;102207.88;5027357;28;20088;-85
2021/06/13 03:24:35;;;;;;;18.60;11.85;;;;;;;10.19;88.95;102203.78;5018726;28;20236;-86
2021/06/13 03:27:01;;;;;;;19.47;11.53;;;;;;;10.11;88.78;102204.41;5012290;28;20030;-85
2021/06/13 03:29:27;;;;;;;16.30;11.15;;;;;;;10.19;88.47;102198.41;5011865;28;20312;-85
2021/06/13 03:31:54;;;;;;;16.15;10.57;;;;;;;10.21;88.36;102201.78;5033303;28;20548;-87
2021/06/13 03:34:21;;;;;;;20.75;12.30;;;;;;;10.19;88.49;102203.78;5005614;28;20033;-82
2021/06/13 03:36:48;;;;;;;19.50;12.02;;;;;;;10.17;89.06;102218.13;5014055;28;20585;-85
2021/06/13 03:39:15;;;;;;;22.83;12.40;;;;;;;10.15;88.88;102220.09;5012203;28;20049;-86
2021/06/13 03:41:41;;;;;;;16.98;11.50;;;;;;;10.11;89.28;102228.53;5024965;28;20049;-84
2021/06/13 03:44:08;;;;;;;19.08;11.48;;;;;;;10.06;89.24;102220.00;5029381;28;20026;-85
2021/06/13 03:46:36;;;;;;;22.20;12.20;;;;;;;10.06;89.63;102228.91;5027109;28;20175;-83
2021/06/13 03:49:05;;;;;;;21.08;11.65;;;;;;;10.07;90.02;102217.22;5015322;28;20283;-84
2021/06/13 03:51:31;;;;;;;20.75;11.43;;;;;;;10.13;89.26;102211.34;5014543;28;20049;-85
2021/06/13 03:54:00;;;;;;;20.75;12.30;;;;;;;10.15;89.57;102214.72;5020494;28;20034;-84
2021/06/13 03:56:31;;;;;;;18.70;12.40;;;;;;;10.13;89.44;102215.84;5026164;28;20052;-88
2021/06/13 03:58:57;;;;;;;20.40;11.52;;;;;;;10.09;89.70;102220.59;5017987;28;20474;-83
2021/06/13 04:01:23;;;;;;;19.52;12.57;;;;;;;10.19;89.92;102228.75;5005149;28;20046;-86
2021/06/13 04:03:52;;;;;;;20.23;12.98;;;;;;;10.18;89.32;102229.72;5027196;28;20041;-86
2021/06/13 04:06:24;;;;;;;18.58;12.68;;;;;;;10.24;89.48;102223.00;5014362;28;20041;-84
2021/06/13 04:08:51;;;;;;;19.27;12.65;;;;;;;10.27;89.83;102233.50;5020555;28;20103;-88
2021/06/13 04:11:19;;;;;;;15.77;10.88;;;;;;;10.16;90.02;102237.91;5021165;28;20040;-84
2021/06/13 04:13:47;;;;;;;21.77;12.68;;;;;;;10.29;90.18;102231.56;5014214;28;20053;-84
2021/06/13 04:16:14;;;;;;;19.45;11.93;;;;;;;10.33;89.83;102235.72;5013054;28;20030;-84
2021/06/13 04:18:42;;;;;;;19.00;12.32;;;;;;;10.36;89.81;102230.94;5021677;28;20033;-86
2021/06/13 04:21:12;;;;;;;20.30;12.70;;;;;;;10.43;90.18;102236.63;5030225;28;20398;-86
2021/06/13 04:23:43;;;;;;;20.65;13.25;;;;;;;10.44;89.95;102241.00;5008465;28;20053;-85
2021/06/13 04:26:13;;;;;;;21.27;12.70;;;;;;;10.52;89.80;102241.22;5012912;28;20037;-85
2021/06/13 04:28:38;;;;;;;23.13;13.18;;;;;;;10.49;90.45;102233.41;5015543;28;20041;-88
2021/06/13 04:31:03;;;;;;;23.95;13.25;;;;;;;10.56;90.57;102244.53;5007738;28;20530;-85
2021/06/13 04:33:30;;;;;;;23.63;13.05;;;;;;;10.65;90.35;102246.41;5016459;28;20117;-83
2021/06/13 04:35:56;;;;;;;24.42;13.32;;;;;;;10.70;90.86;102246.00;5014914;28;20037;-85
2021/06/13 04:38:21;;;;;;;25.00;12.88;;;;;;;10.85;89.55;102247.41;5019442;28;20048;-84
2021/06/13 04:40:47;;;;;;;23.58;12.30;;;;;;;10.87;89.32;102248.13;5015262;28;20049;-88
2021/06/13 04:43:12;;;;;;;24.38;12.48;;;;;;;10.98;89.76;102241.84;5022277;28;20029;-83
2021/06/13 04:45:38;;;;;;;19.33;11.70;;;;;;;11.14;88.79;102244.06;5014006;28;20061;-86
2021/06/13 04:48:06;;;;;;;23.13;12.68;;;;;;;11.26;88.11;102243.00;5029487;28;20091;-83
2021/06/13 04:50:34;;;;;;;21.33;12.10;;;;;;;11.38;87.79;102236.53;5025184;28;20041;-84
2021/06/13 04:53:01;;;;;;;21.25;12.05;;;;;;;11.42;87.76;102246.06;5013633;28;20324;-86
2021/06/13 04:55:38;;;;;;;22.73;12.30;;;;;;;11.48;87.83;102248.22;5020547;28;20046;-88
2021/06/13 04:58:11;;;;;;;19.27;12.80;;;;;;;11.54;87.25;102246.81;5024822;28;20504;-85
2021/06/13 05:00:36;;;;;;;25.60;12.68;;;;;;;11.64;86.95;102247.69;5016919;28;20046;-84
2021/06/13 05:03:02;;;;;;;22.80;12.13;;;;;;;11.61;87.19;102258.72;5008611;28;20040;-87
2021/06/13 05:05:27;;;;;;;17.17;12.32;;;;;;;11.72;87.01;102261.31;5011531;28;20136;-86
2021/06/13 05:07:52;;;;;;;19.80;13.18;;;;;;;11.81;86.71;102256.94;5010927;28;20494;-86
2021/06/13 05:10:18;;;;;;;24.85;12.18;;;;;;;11.88;86.98;102260.84;5015334;28;20394;-87
2021/06/13 05:12:51;;;;;;;18.85;11.88;;;;;;;12.03;86.31;102264.00;5028112;28;20414;-84
2021/06/13 05:15:18;;;;;;;20.85;11.65;;;;;;;12.13;85.76;102264.00;5014490;28;20449;-86
2021/06/13 05:17:43;;;;;;;18.95;10.88;;;;;;;12.15;85.12;102262.88;5004170;28;20045;-85
2021/06/13 05:20:09;;;;;;;19.08;11.23;;;;;;;12.16;84.94;102264.56;5026654;28;20429;-84
2021/06/13 05:23:05;;;;;;;19.15;10.95;;;;;;;12.27;84.78;102271.69;5016440;28;20037;-85
2021/06/13 05:25:33;;;;;;;18.98;10.88;;;;;;;12.33;85.03;102268.41;5017312;28;20132;-83
2021/06/13 05:28:00;;;;;;;21.10;11.05;;;;;;;12.35;84.26;102269.16;5007937;28;20112;-87
2021/06/13 05:30:28;;;;;;;19.63;11.30;;;;;;;12.40;85.03;102269.59;5024545;28;20037;-88
2021/06/13 05:32:54;;;;;;;22.10;9.70;;;;;;;12.47;83.96;102266.31;4989086;28;20054;-86
2021/06/13 05:35:20;;;;;;;17.38;10.70;;;;;;;12.59;83.14;102273.25;5011462;28;20529;-88
2021/06/13 05:37:46;;;;;;;19.65;10.45;;;;;;;12.64;82.67;102271.84;5020634;28;20045;-88
2021/06/13 05:40:12;;;;;;;15.80;9.65;;;;;;;12.70;82.53;102273.13;5009249;28;20671;-85
2021/06/13 05:42:38;;;;;;;18.77;9.63;;;;;;;12.75;82.08;102270.84;5025898;28;20112;-84
2021/06/13 05:45:06;;;;;;;18.58;9.70;;;;;;;12.94;81.94;102280.75;5021337;28;20041;-85
2021/06/13 05:47:32;;;;;;;19.02;10.27;;;;;;;13.02;81.96;102285.44;5012958;28;20091;-86
2021/06/13 05:49:57;;;;;;;15.70;8.82;;;;;;;13.06;81.00;102286.84;5027124;28;20037;-85
2021/06/13 05:52:22;;;;;;;17.95;9.50;;;;;;;13.14;80.61;102292.34;5013834;28;20120;-85
2021/06/13 05:54:48;;;;;;;15.23;8.65;;;;;;;13.11;80.31;102287.25;5006484;28;20045;-85
2021/06/13 05:57:13;;;;;;;16.60;8.63;;;;;;;13.26;79.77;102296.66;5031694;28;20037;-85
2021/06/13 05:59:39;;;;;;;16.02;9.32;;;;;;;13.42;79.67;102292.47;5034842;28;20583;-84
2021/06/13 06:02:04;;;;;;;17.25;9.55;;;;;;;13.44;79.85;102288.66;5002110;28;20499;-83
2021/06/13 06:04:29;;;;;;;18.38;9.30;;;;;;;13.56;78.92;102296.56;4996373;28;20033;-84
2021/06/13 06:06:55;;;;;;;16.98;8.98;;;;;;;13.56;78.59;102300.09;5000861;28;20490;-83
2021/06/13 06:09:20;;;;;;;17.60;8.55;;;;;;;13.67;78.16;102299.06;5026170;28;20045;-84
2021/06/13 06:11:45;;;;;;;18.77;9.68;;;;;;;13.70;78.69;102302.31;5002055;28;20056;-84
2021/06/13 06:14:11;;;;;;;16.63;8.82;;;;;;;13.72;77.54;102308.44;4997278;28;20041;-85
2021/06/13 06:16:37;;;;;;;18.67;9.60;;;;;;;13.82;77.57;102302.97;5019962;28;20648;-91
2021/06/13 06:19:03;;;;;;;22.65;8.93;;;;;;;13.80;76.77;102293.31;5007772;28;20437;-90
2021/06/13 06:21:28;;;;;;;18.75;8.55;;;;;;;13.82;76.98;102304.81;5023361;28;20119;-85
2021/06/13 06:23:53;;;;;;;19.33;8.98;;;;;;;13.99;77.65;102306.72;5008795;28;20499;-91
2021/06/13 06:26:19;;;;;;;17.52;9.45;;;;;;;13.95;76.54;102313.41;5034561;28;20128;-86
2021/06/13 06:28:46;;;;;;;18.27;9.02;;;;;;;14.00;76.48;102311.13;5022835;28;20060;-87
2021/06/13 06:31:11;;;;;;;19.92;8.70;;;;;;;14.10;77.39;102321.88;5018840;28;20053;-85
2021/06/13 06:33:37;;;;;;;15.82;9.15;;;;;;;14.31;76.23;102333.25;5032742;28;20095;-87
2021/06/13 06:36:03;;;;;;;16.30;8.13;;;;;;;14.33;74.91;102339.38;5018542;28;20099;-85
2021/06/13 06:38:29;;;;;;;18.48;9.20;;;;;;;14.42;74.99;102343.00;5017162;28;20132;-88
2021/06/13 06:40:54;;;;;;;15.93;9.18;;;;;;;14.44;75.02;102343.69;5035709;28;20117;-88
2021/06/13 06:43:20;;;;;;;18.63;8.63;;;;;;;14.43;74.13;102347.41;4995330;28;20105;-86
2021/06/13 06:45:45;;;;;;;18.45;8.88;;;;;;;14.45;74.28;102348.09;4988739;28;20100;-91
2021/06/13 06:48:11;;;;;;;14.43;8.68;;;;;;;14.68;74.18;102355.81;5016712;28;20046;-88
2021/06/13 06:50:36;;;;;;;15.95;8.07;;;;;;;14.64;73.49;102357.94;5038518;28;20105;-84
2021/06/13 06:53:01;;;;;;;17.27;9.27;;;;;;;14.76;73.84;102348.63;5034146;28;20038;-88
2021/06/13 06:55:27;;;;;;;16.48;7.72;;;;;;;14.86;72.30;102357.50;5020803;28;20332;-88
2021/06/13 06:57:52;;;;;;;18.60;8.80;;;;;;;14.86;71.68;102357.50;5024797;28;20068;-84
2021/06/13 07:00:18;;;;;;;16.08;7.35;;;;;;;14.88;70.68;102349.25;5032610;28;20057;-86
2021/06/13 07:02:45;;;;;;;15.20;6.78;;;;;;;14.98;70.62;102365.38;5037774;28;20133;-84
2021/06/13 07:05:11;;;;;;;16.70;7.35;;;;;;;14.84;70.43;102364.06;5020151;28;20036;-87
2021/06/13 07:07:37;;;;;;;16.85;7.68;;;;;;;14.95;70.71;102363.84;5036829;28;21437;-87
2021/06/13 07:10:04;;;;;;;15.77;7.47;;;;;;;15.00;70.23;102357.97;5018101;28;20049;-84
2021/06/13 07:12:30;;;;;;;11.70;6.13;;;;;;;15.20;70.24;102358.66;5023378;28;20041;-84
2021/06/13 07:14:55;;;;;;;18.30;7.03;;;;;;;15.32;68.68;102360.09;5020206;28;20549;-88
2021/06/13 07:17:21;;;;;;;13.48;6.63;;;;;;;15.39;68.84;102363.00;5013963;28;20045;-85
2021/06/13 07:19:46;;;;;;;12.50;5.47;;;;;;;15.47;66.70;102355.78;5024850;28;20038;-89
2021/06/13 07:22:12;;;;;;;10.38;6.28;;;;;;;15.48;66.74;102356.66;5037230;28;20288;-85
2021/06/13 07:24:37;;;;;;;11.18;5.72;;;;;;;15.48;66.07;102359.38;5024858;28;20041;-84
2021/06/13 07:27:03;;;;;;;9.45;5.68;;;;;;;15.39;64.87;102357.59;5021416;28;20042;-84
2021/06/13 07:29:28;;;;;;;11.80;6.30;;;;;;;15.50;66.26;102360.03;5022248;28;20060;-86
2021/06/13 07:31:54;;;;;;;12.55;5.57;;;;;;;15.55;65.33;102363.13;5035108;28;20052;-89
2021/06/13 07:34:19;;;;;;;9.95;5.20;;;;;;;15.62;64.65;102364.19;5024891;28;20470;-89
2021/06/13 07:36:45;;;;;;;9.55;5.03;;;;;;;15.73;62.58;102363.94;5032140;28;20514;-86
2021/06/13 07:39:10;;;;;;;11.25;4.68;;;;;;;15.81;63.71;102363.16;5020324;28;20045;-91
2021/06/13 07:41:36;;;;;;;10.23;5.50;;;;;;;15.79;63.97;102360.63;5022742;28;20082;-90
2021/06/13 07:44:02;;;;;;;12.75;6.13;;;;;;;15.75;64.01;102364.63;5019193;28;20525;-87
2021/06/13 07:46:27;;;;;;;14.18;5.68;;;;;;;15.77;64.60;102357.22;5023519;28;20505;-87
2021/06/13 07:48:52;;;;;;;11.20;5.35;;;;;;;15.83;63.70;102366.56;5024719;28;20162;-88
2021/06/13 07:51:18;;;;;;;13.15;5.70;;;;;;;16.05;64.07;102365.13;5031031;28;20045;-89
2021/06/13 07:53:43;;;;;;;11.38;5.97;;;;;;;16.16;64.69;102366.69;5016871;28;20742;-88
2021/06/13 07:56:13;;;;;;;10.50;4.90;;;;;;;16.29;64.05;102363.56;5021734;28;20051;-87
2021/06/13 07:58:38;;;;;;;11.43;5.18;;;;;;;16.31;63.43;102359.63;5029885;28;20040;-86
2021/06/13 08:01:04;;;;;;;9.95;5.68;;;;;;;16.30;62.41;102355.25;5020951;28;20037;-88
2021/06/13 08:03:29;;;;;;;11.02;5.20;;;;;;;16.19;62.68;102366.38;5036525;28;20178;-87
2021/06/13 08:05:55;;;;;;;13.95;6.47;;;;;;;16.30;62.84;102370.66;5020292;28;20493;-86
2021/06/13 08:08:20;;;;;;;16.95;5.90;;;;;;;16.36;63.49;102368.13;5021791;28;20037;-88
2021/06/13 08:10:46;;;;;;;10.98;5.30;;;;;;;16.34;62.72;102382.84;5031443;28;20401;-85
2021/06/13 08:13:13;;;;;;;13.65;5.63;;;;;;;16.22;62.38;102376.88;5012683;28;20037;-84
2021/06/13 08:15:39;;;;;;;11.63;5.80;;;;;;;16.22;63.21;102376.88;5032523;28;20037;-84
2021/06/13 08:18:05;;;;;;;10.20;5.53;;;;;;;16.44;62.50;102378.16;5037384;28;20030;-83
2021/06/13 08:20:30;;;;;;;12.02;5.35;;;;;;;16.67;62.71;102381.09;5025205;28;20045;-86
2021/06/13 08:22:55;;;;;;;9.65;4.65;;;;;;;16.52;60.69;102375.47;5041403;28;20041;-86
2021/06/13 08:25:21;;;;;;;10.30;4.65;;;;;;;16.61;61.51;102382.59;5039616;28;20037;-86
2021/06/13 08:27:47;;;;;;;11.18;5.38;;;;;;;16.84;61.54;102387.44;5037502;28;20099;-85
2021/06/13 08:30:15;;;;;;;9.15;5.20;;;;;;;16.90;61.36;102381.34;5021525;28;20602;-88
2021/06/13 08:32:41;;;;;;;12.18;5.28;;;;;;;16.95;60.25;102380.84;5024461;28;20049;-87
2021/06/13 08:35:07;;;;;;;12.27;5.18;;;;;;;16.86;60.23;102380.84;5026517;28;20072;-88
2021/06/13 08:37:33;;;;;;;12.15;5.30;;;;;;;16.75;59.65;102374.84;5040603;28;20072;-85
2021/06/13 08:39:59;;;;;;;12.65;5.90;;;;;;;16.80;59.88;102381.50;5019075;28;20044;-88
2021/06/13 08:42:25;;;;;;;14.32;6.25;;;;;;;16.87;61.61;102387.94;5026146;28;20041;-87
2021/06/13 08:44:52;;;;;;;11.20;5.30;;;;;;;16.99;60.18;102383.03;5026282;28;20080;-85
2021/06/13 08:47:19;;;;;;;11.93;5.68;;;;;;;17.03;61.14;102388.97;5038984;28;20099;-85
2021/06/13 08:49:46;;;;;;;13.85;5.75;;;;;;;17.29;61.01;102370.69;5020387;28;20080;-86
2021/06/13 08:52:12;;;;;;;11.35;6.10;;;;;;;17.10;60.97;102379.16;5019678;28;20148;-85
2021/06/13 08:54:39;;;;;;;13.32;5.68;;;;;;;17.22;60.98;102375.09;5009932;28;20234;-88
2021/06/13 08:57:05;;;;;;;13.23;5.68;;;;;;;17.35;60.17;102386.28;5032650;28;20121;-88
2021/06/13 08:59:31;;;;;;;15.15;5.63;;;;;;;17.43;59.26;102381.84;5021011;28;20030;-85
2021/06/13 09:01:57;;;;;;;10.00;4.78;;;;;;;17.64;58.83;102384.91;4997928;28;20363;-83
2021/06/13 09:04:22;;;;;;;10.50;4.43;;;;;;;17.78;57.58;102381.50;5013196;28;20233;-84
2021/06/13 09:06:50;;;;;;;13.18;5.30;;;;;;;17.70;56.79;102386.06;4981704;28;20457;-86
2021/06/13 09:09:18;;;;;;;9.80;4.82;;;;;;;17.50;57.85;102383.72;5013948;28;20042;-86
2021/06/13 09:12:03;;;;;;;10.13;4.10;;;;;;;17.70;56.13;102389.63;5035471;28;20389;-86
2021/06/13 09:14:29;;;;;;;7.60;4.32;;;;;;;17.70;57.15;102383.38;5033549;28;20370;-88
2021/06/13 09:16:56;;;;;;;9.45;4.88;;;;;;;17.83;58.06;102380.13;5017781;28;20045;-87
2021/06/13 09:19:21;;;;;;;10.07;4.95;;;;;;;17.94;57.78;102387.91;5017876;28;20368;-84
2021/06/13 09:21:47;;;;;;;11.68;5.53;;;;;;;18.00;57.69;102382.63;5027500;28;20060;-85
2021/06/13 09:24:19;;;;;;;10.60;4.70;;;;;;;18.01;57.05;102380.75;5015606;28;20140;-85
2021/06/13 09:26:46;;;;;;;10.88;5.38;;;;;;;18.15;56.43;102382.72;5020999;28;20049;-86
2021/06/13 09:29:11;;;;;;;10.13;5.00;;;;;;;18.33;56.71;102374.34;5018103;28;20038;-84
2021/06/13 09:31:37;;;;;;;12.65;4.50;;;;;;;18.36;56.45;102370.44;5029909;28;20049;-87
2021/06/13 09:34:05;;;;;;;10.25;4.78;;;;;;;18.43;56.32;102379.56;5023833;28;20030;-83
2021/06/13 09:36:34;;;;;;;10.20;4.55;;;;;;;18.42;55.27;102367.00;5020688;28;20037;-85
2021/06/13 09:39:04;;;;;;;;;;;;;;;18.29;55.94;102372.16;5023316;28;20053;-83
2021/06/13 09:41:30;;;;;;;12.63;4.65;;;;;;;18.55;57.03;102375.41;5034435;28;20393;-85
2021/06/13 09:44:00;;;;;;;11.77;5.35;;;;;;;18.54;55.68;102383.75;5017663;28;20064;-87
2021/06/13 09:46:28;;;;;;;10.25;4.40;;;;;;;18.52;54.08;102385.78;5033293;28;20045;-86
2021/06/13 09:49:06;;;;;;;8.15;4.25;;;;;;;18.58;53.63;102379.63;5020725;28;20033;-84
2021/06/13 09:51:34;;;;;;;11.43;4.85;;;;;;;18.47;54.92;102376.31;5019035;28;20046;-86
2021/06/13 09:54:05;;;;;;;11.82;4.72;;;;;;;18.44;57.00;102373.09;5025787;28;20025;-84
2021/06/13 09:56:34;;;;;;;13.75;6.05;;;;;;;18.79;56.27;102371.75;5020649;28;20042;-84
2021/06/13 09:59:04;;;;;;;9.30;4.75;;;;;;;19.00;54.96;102372.94;5028889;28;20045;-87
2021/06/13 10:01:38;;;;;;;11.90;5.05;;;;;;;18.90;54.66;102378.63;5017903;28;20227;-85
2021/06/13 10:04:22;;;;;;;9.80;4.63;;;;;;;18.95;54.33;102373.47;4998612;28;20041;-83
2021/06/13 10:06:50;;;;;;;10.50;4.85;;;;;;;18.93;54.64;102370.09;5016943;28;20041;-84
2021/06/13 10:09:18;;;;;;;8.63;4.15;;;;;;;18.99;52.99;102368.50;5026683;28;20765;-86
2021/06/13 10:11:47;;;;;;;13.38;4.63;;;;;;;18.87;51.02;102370.81;5023373;28;20568;-86
2021/06/13 10:14:17;;;;;;;9.82;5.13;;;;;;;18.87;53.03;102371.69;5000987;28;20041;-83
2021/06/13 10:16:51;;;;;;;12.50;5.40;;;;;;;18.90;52.69;102373.16;5020312;28;20060;-86
2021/06/13 10:19:19;;;;;;;13.32;4.88;;;;;;;18.96;52.94;102369.75;5038236;28;20103;-86
2021/06/13 10:22:10;;;;;;;10.90;4.55;;;;;;;19.05;53.61;102374.09;5021951;28;20490;-88
2021/06/13 10:24:37;;;;;;;11.80;5.07;;;;;;;19.35;53.39;102376.91;5025318;28;20049;-87
2021/06/13 10:27:05;;;;;;;11.02;5.00;;;;;;;19.09;53.80;102380.84;5031902;28;20040;-83
2021/06/13 10:29:32;;;;;;;12.27;5.53;;;;;;;19.32;55.09;102369.09;5009564;28;20074;-84
2021/06/13 10:32:02;;;;;;;10.65;5.15;;;;;;;19.55;53.16;102369.91;5002425;28;20046;-85
2021/06/13 10:34:28;;;;;;;8.52;4.90;;;;;;;19.57;53.03;102367.00;5016744;28;20052;-84
2021/06/13 10:36:57;;;;;;;13.18;4.63;;;;;;;19.59;52.57;102364.91;5033450;28;20437;-83
2021/06/13 10:39:24;;;;;;;8.80;4.27;;;;;;;19.90;53.40;102370.22;5014795;28;20042;-86
2021/06/13 10:41:51;;;;;;;9.02;4.68;;;;;;;19.78;52.62;102358.13;5022407;28;20049;-85
2021/06/13 10:44:20;;;;;;;6.82;4.32;;;;;;;19.69;51.70;102354.66;5014146;28;20501;-85
2021/06/13 10:46:52;;;;;;;9.95;4.82;;;;;;;19.69;50.67;102365.53;5038526;28;20052;-85
2021/06/13 10:49:35;;;;;;;8.23;4.60;;;;;;;19.64;52.15;102362.50;5034077;28;20478;-83
2021/06/13 10:52:08;;;;;;;11.40;4.82;;;;;;;19.74;51.23;102362.25;5004765;28;20049;-86
2021/06/13 10:54:36;;;;;;;10.73;4.38;;;;;;;19.99;51.01;102355.47;5001480;28;20041;-85
2021/06/13 10:57:04;;;;;;;10.40;4.35;;;;;;;20.02;50.42;102362.44;5015489;28;20064;-85
2021/06/13 10:59:37;;;;;;;8.02;4.10;;;;;;;19.91;50.10;102357.44;5032013;28;20065;-87
2021/06/13 11:02:11;;;;;;;9.07;4.38;;;;;;;20.14;49.55;102362.78;5001184;28;20065;-85
2021/06/13 11:04:53;;;;;;;8.10;4.55;;;;;;;19.97;50.55;102360.28;5016624;28;20075;-86
2021/06/13 11:07:28;;;;;;;9.55;4.72;;;;;;;20.11;50.88;102366.78;5023036;28;20053;-84
2021/06/13 11:10:10;;;;;;;10.23;4.22;;;;;;;20.16;49.86;102366.19;5005121;28;20394;-83
2021/06/13 11:12:56;;;;;;;10.10;4.30;;;;;;;20.19;50.42;102368.53;5023925;28;20158;-83
2021/06/13 11:15:22;;;;;;;10.90;4.50;;;;;;;20.69;48.07;102364.13;5019266;28;20050;-85
2021/06/13 11:17:58;;;;;;;7.00;4.13;;;;;;;20.64;49.03;102363.88;5010948;28;20394;-84